createdAt,value
2022-09-12T00:02:14.124Z,4.80
2022-09-12T00:04:43.916Z,4.35
2022-09-12T00:07:14.941Z,4.88
2022-09-12T00:09:43.528Z,5.03
2022-09-12T00:12:13.323Z,4.95
2022-09-12T00:14:42.960Z,5.07
2022-09-12T00:17:12.730Z,5.35
2022-09-12T00:19:43.314Z,5.15
2022-09-12T00:22:13.046Z,5.10
2022-09-12T00:24:44.770Z,5.18
2022-09-12T00:27:13.082Z,5.50
2022-09-12T00:29:42.673Z,5.10
2022-09-12T00:32:12.560Z,5.30
2022-09-12T00:34:42.167Z,5.15
2022-09-12T00:37:11.995Z,4.85
2022-09-12T00:39:41.793Z,4.95
2022-09-12T00:42:13.365Z,5.50
2022-09-12T00:44:49.312Z,5.22
2022-09-12T00:47:30.667Z,5.25
2022-09-12T00:50:06.068Z,5.90
2022-09-12T00:52:37.119Z,5.43
2022-09-12T00:55:11.009Z,5.05
2022-09-12T00:57:46.063Z,5.50
2022-09-12T01:00:20.023Z,5.30
2022-09-12T01:02:53.672Z,5.00
2022-09-12T01:05:25.977Z,5.03
2022-09-12T01:07:58.216Z,5.32
2022-09-12T01:10:26.822Z,5.10
2022-09-12T01:12:57.732Z,6.20
2022-09-12T01:15:25.754Z,6.03
2022-09-12T01:18:07.692Z,5.75
2022-09-12T01:23:48.678Z,6.22
2022-09-12T01:26:55.451Z,6.30
2022-09-12T01:29:50.683Z,6.82
2022-09-12T01:32:26.518Z,7.20
2022-09-12T01:35:01.997Z,6.90
2022-09-12T01:37:38.732Z,7.25
2022-09-12T01:40:16.226Z,7.40
2022-09-12T01:42:53.577Z,7.75
2022-09-12T01:45:29.467Z,7.93
2022-09-12T01:48:06.211Z,8.48
2022-09-12T01:50:39.471Z,7.32
2022-09-12T01:53:15.567Z,8.00
2022-09-12T01:55:51.349Z,8.48
2022-09-12T01:58:23.690Z,7.55
2022-09-12T02:00:59.689Z,7.55
2022-09-12T02:03:34.556Z,8.07
2022-09-12T02:06:09.387Z,7.60
2022-09-12T02:08:43.931Z,8.10
2022-09-12T02:11:15.088Z,8.00
2022-09-12T02:13:50.917Z,8.27
2022-09-12T02:16:26.766Z,8.25
2022-09-12T02:19:05.287Z,7.97
2022-09-12T02:21:38.637Z,7.57
2022-09-12T02:24:11.673Z,8.35
2022-09-12T02:26:45.856Z,8.10
2022-09-12T02:29:16.916Z,8.05
2022-09-12T02:31:48.910Z,8.18
2022-09-12T02:34:30.180Z,8.77
2022-09-12T02:37:04.762Z,8.63
2022-09-12T02:39:35.213Z,8.93
2022-09-12T02:42:04.633Z,8.48
2022-09-12T02:44:35.251Z,8.40
2022-09-12T02:47:07.160Z,8.13
2022-09-12T02:49:39.830Z,8.13
2022-09-12T02:52:08.068Z,8.63
2022-09-12T02:54:38.361Z,9.27
2022-09-12T02:57:21.903Z,9.25
2022-09-12T02:59:55.503Z,9.05
2022-09-12T03:02:31.779Z,9.57
2022-09-12T03:05:28.136Z,8.60
2022-09-12T03:08:27.352Z,8.95
2022-09-12T03:11:10.464Z,8.80
2022-09-12T03:16:18.503Z,8.43
2022-09-12T03:18:54.196Z,9.18
2022-09-12T03:21:31.913Z,8.45
2022-09-12T03:24:12.617Z,9.07
2022-09-12T03:26:46.031Z,9.25
2022-09-12T03:29:17.107Z,9.10
2022-09-12T03:31:51.250Z,9.43
2022-09-12T03:34:23.087Z,9.15
2022-09-12T03:36:55.995Z,9.27
2022-09-12T03:41:58.103Z,8.27
2022-09-12T03:44:27.771Z,9.00
2022-09-12T03:46:57.281Z,10.40
2022-09-12T03:49:27.132Z,10.90
2022-09-12T03:51:58.111Z,10.38
2022-09-12T03:54:26.659Z,10.25
2022-09-12T03:56:56.242Z,10.50
2022-09-12T03:59:26.051Z,10.23
2022-09-12T04:01:55.719Z,9.98
2022-09-12T04:04:25.786Z,10.50
2022-09-12T04:06:55.579Z,10.10
2022-09-12T04:09:26.895Z,9.25
2022-09-12T04:11:55.286Z,9.30
2022-09-12T04:14:25.366Z,9.25
2022-09-12T04:16:55.016Z,9.13
2022-09-12T04:19:24.778Z,9.23
2022-09-12T04:21:54.640Z,9.43
2022-09-12T04:24:25.925Z,9.80
2022-09-12T04:26:54.473Z,8.95
2022-09-12T04:29:25.097Z,9.55
2022-09-12T04:31:55.324Z,8.88
2022-09-12T04:34:24.657Z,9.48
2022-09-12T04:36:54.454Z,8.50
2022-09-12T04:39:24.379Z,9.13
2022-09-12T04:41:55.351Z,9.43
2022-09-12T04:44:23.904Z,9.25
2022-09-12T04:46:53.746Z,9.00
2022-09-12T04:49:23.991Z,9.82
2022-09-12T04:51:54.122Z,9.60
2022-09-12T04:54:24.995Z,9.23
2022-09-12T04:56:56.227Z,9.10
2022-09-12T04:59:26.504Z,8.27
2022-09-12T05:01:57.428Z,8.43
2022-09-12T05:04:25.416Z,7.93
2022-09-12T05:06:54.780Z,8.00
2022-09-12T05:09:24.266Z,9.77
2022-09-12T05:12:08.918Z,10.60
2022-09-12T05:14:38.343Z,9.70
2022-09-12T05:17:07.066Z,10.15
2022-09-12T05:19:37.007Z,9.07
2022-09-12T05:22:07.760Z,10.23
2022-09-12T05:24:39.331Z,9.45
2022-09-12T05:27:10.424Z,9.45
2022-09-12T05:29:42.975Z,9.10
2022-09-12T05:34:43.626Z,9.32
2022-09-12T05:37:14.343Z,9.45
2022-09-12T05:39:44.114Z,10.40
2022-09-12T05:42:14.284Z,10.15
2022-09-12T05:44:45.463Z,10.50
2022-09-12T05:47:13.803Z,10.45
2022-09-12T05:49:45.170Z,10.60
2022-09-12T05:52:15.249Z,10.50
2022-09-12T05:54:45.090Z,10.60
2022-09-12T05:57:14.884Z,9.63
2022-09-12T05:59:46.385Z,10.00
2022-09-12T06:02:14.668Z,9.70
2022-09-12T06:04:44.168Z,9.23
2022-09-12T06:07:14.555Z,8.70
2022-09-12T06:09:45.449Z,9.73
2022-09-12T06:12:15.292Z,9.77
2022-09-12T06:14:46.567Z,10.20
2022-09-12T06:17:15.257Z,10.27
2022-09-12T06:19:45.554Z,10.57
2022-09-12T06:22:14.975Z,10.50
2022-09-12T06:24:44.835Z,10.38
2022-09-12T06:27:14.734Z,9.68
2022-09-12T06:29:44.363Z,9.32
2022-09-12T06:32:15.630Z,10.32
2022-09-12T06:34:48.419Z,8.88
2022-09-12T06:37:16.596Z,9.82
2022-09-12T06:39:46.965Z,9.13
2022-09-12T06:42:16.405Z,9.00
2022-09-12T06:45:00.151Z,9.90
2022-09-12T06:47:32.962Z,9.73
2022-09-12T06:52:35.444Z,9.57
2022-09-12T06:55:07.321Z,8.75
2022-09-12T06:57:38.880Z,9.23
2022-09-12T07:00:11.741Z,9.02
2022-09-12T07:02:43.730Z,8.50
2022-09-12T07:07:46.433Z,8.52
2022-09-12T07:10:22.123Z,8.23
2022-09-12T07:12:53.354Z,5.68
2022-09-12T07:15:24.224Z,7.60
2022-09-12T07:17:56.946Z,4.60
2022-09-12T07:20:28.150Z,4.32
2022-09-12T07:22:59.081Z,3.70
2022-09-12T07:25:29.973Z,2.90
2022-09-12T07:28:00.967Z,4.22
2022-09-12T07:30:31.944Z,4.32
2022-09-12T07:33:04.368Z,3.28
2022-09-12T07:35:35.595Z,3.78
2022-09-12T07:38:06.530Z,2.70
2022-09-12T07:40:37.399Z,2.55
2022-09-12T07:43:08.337Z,1.70
2022-09-12T07:45:41.776Z,1.48
2022-09-12T07:48:14.209Z,10.65
2022-09-12T07:50:45.257Z,1.50
2022-09-12T07:53:16.154Z,1.75
2022-09-12T07:55:54.445Z,1.38
2022-09-12T07:58:25.654Z,1.50
2022-09-12T08:00:56.545Z,1.50
2022-09-12T08:03:28.804Z,1.70
2022-09-12T08:06:05.125Z,1.50
2022-09-12T08:08:36.266Z,1.67
2022-09-12T08:11:08.471Z,1.30
2022-09-12T08:13:40.863Z,1.10
2022-09-12T08:16:14.487Z,1.10
2022-09-12T08:18:46.941Z,1.00
2022-09-12T08:21:19.437Z,0.90
2022-09-12T08:23:53.246Z,1.05
2022-09-12T08:26:24.679Z,1.08
2022-09-12T08:28:55.854Z,1.10
2022-09-12T08:31:28.287Z,0.95
2022-09-12T08:34:00.825Z,0.85
2022-09-12T08:36:31.857Z,0.90
2022-09-12T08:39:04.415Z,0.90
2022-09-12T08:41:37.693Z,0.90
2022-09-12T08:44:29.523Z,0.95
2022-09-12T08:47:10.160Z,0.80
2022-09-12T08:49:55.100Z,0.98
2022-09-12T08:52:30.479Z,0.98
2022-09-12T08:55:02.194Z,1.00
2022-09-12T08:57:33.494Z,0.98
2022-09-12T09:00:06.669Z,0.82
2022-09-12T09:03:07.974Z,1.02
2022-09-12T09:05:48.873Z,0.90
2022-09-12T09:08:30.655Z,0.98
2022-09-12T09:11:06.156Z,1.20
2022-09-12T09:14:05.408Z,1.27
2022-09-12T09:16:38.713Z,1.25
2022-09-12T09:19:15.643Z,0.95
2022-09-12T09:21:52.485Z,1.10
2022-09-12T09:24:26.501Z,1.10
2022-09-12T09:27:00.253Z,0.88
2022-09-12T09:29:35.037Z,1.20
2022-09-12T09:32:13.382Z,0.93
2022-09-12T09:34:44.380Z,1.20
2022-09-12T09:37:20.806Z,1.30
2022-09-12T09:40:00.325Z,1.13
2022-09-12T09:42:39.163Z,1.08
2022-09-12T09:45:16.083Z,0.93
2022-09-12T09:47:46.755Z,1.10
2022-09-12T09:52:50.370Z,1.10
2022-09-12T09:55:24.393Z,1.17
2022-09-12T09:57:55.325Z,0.70
2022-09-12T10:00:31.789Z,0.90
2022-09-12T10:03:17.121Z,0.70
2022-09-12T10:05:48.759Z,0.80
2022-09-12T10:08:27.331Z,0.77
2022-09-12T10:11:01.826Z,0.95
2022-09-12T10:13:42.431Z,0.90
2022-09-12T10:16:22.186Z,0.98
2022-09-12T10:18:54.041Z,1.13
2022-09-12T10:21:35.761Z,0.80
2022-09-12T10:24:20.059Z,1.00
2022-09-12T10:26:56.536Z,0.93
2022-09-12T10:29:29.831Z,0.90
2022-09-12T10:32:02.450Z,0.68
2022-09-12T10:37:08.969Z,0.90
2022-09-12T10:39:41.345Z,0.82
2022-09-12T10:42:17.527Z,0.73
2022-09-12T10:44:55.542Z,0.60
2022-09-12T10:47:32.157Z,0.80
2022-09-12T10:50:23.051Z,0.80
2022-09-12T10:52:54.431Z,1.00
2022-09-12T10:55:34.062Z,0.82
2022-09-12T10:58:17.228Z,0.80
2022-09-12T11:00:51.996Z,0.77
2022-09-12T11:03:25.391Z,0.80
2022-09-12T11:05:58.274Z,1.05
2022-09-12T11:08:51.603Z,0.63
2022-09-12T11:11:40.322Z,0.70
2022-09-12T11:14:26.143Z,0.90
2022-09-12T11:17:00.683Z,0.90
2022-09-12T11:19:47.061Z,0.77
2022-09-12T11:22:37.839Z,0.90
2022-09-12T11:25:28.293Z,0.75
2022-09-12T11:28:13.235Z,0.90
2022-09-12T11:30:55.242Z,0.90
2022-09-12T11:33:38.619Z,0.90
2022-09-12T11:36:21.598Z,0.82
2022-09-12T11:38:54.406Z,0.90
2022-09-12T11:41:29.433Z,1.10
2022-09-12T11:44:05.227Z,1.30
2022-09-12T11:46:37.266Z,1.50
2022-09-12T11:49:18.435Z,1.77
2022-09-12T11:51:51.745Z,1.77
2022-09-12T11:54:27.975Z,1.65
2022-09-12T11:57:05.560Z,1.45
2022-09-12T11:59:43.730Z,1.10
2022-09-12T12:02:23.823Z,1.48
2022-09-12T12:05:04.227Z,1.30
2022-09-12T12:07:45.360Z,1.27
2022-09-12T12:10:26.649Z,1.52
2022-09-12T12:12:58.305Z,1.23
2022-09-12T12:15:31.226Z,1.30
2022-09-12T12:18:08.204Z,1.75
2022-09-12T12:20:39.102Z,1.52
2022-09-12T12:23:23.978Z,1.42
2022-09-12T12:25:56.519Z,1.27
2022-09-12T12:31:23.732Z,1.30
2022-09-12T12:34:23.509Z,1.30
2022-09-12T12:36:54.751Z,1.40
2022-09-12T12:40:04.725Z,1.50
2022-09-12T12:43:07.628Z,1.30
2022-09-12T12:46:10.278Z,1.35
2022-09-12T12:49:16.453Z,1.60
2022-09-12T12:51:57.802Z,1.35
2022-09-12T12:54:54.658Z,1.58
2022-09-12T12:57:32.198Z,1.38
2022-09-12T13:00:06.902Z,1.50
2022-09-12T13:02:37.286Z,1.42
2022-09-12T13:05:19.068Z,1.10
2022-09-12T13:07:56.044Z,1.42
2022-09-12T13:10:29.458Z,1.70
2022-09-12T13:13:03.327Z,1.40
2022-09-12T13:15:51.949Z,1.50
2022-09-12T13:18:28.657Z,1.50
2022-09-12T13:21:10.154Z,1.50
2022-09-12T13:23:42.679Z,1.10
2022-09-12T13:26:15.433Z,1.40
2022-09-12T13:28:46.642Z,1.15
2022-09-12T13:31:23.062Z,1.60
2022-09-12T13:33:55.851Z,1.38
2022-09-12T13:36:48.983Z,1.30
2022-09-12T13:39:22.699Z,1.48
2022-09-12T13:42:16.992Z,2.13
2022-09-12T13:44:52.382Z,1.88
2022-09-12T13:47:27.376Z,1.50
2022-09-12T13:49:58.808Z,2.13
2022-09-12T13:52:31.918Z,1.70
2022-09-12T13:55:09.008Z,1.70
2022-09-12T13:57:41.627Z,2.10
2022-09-12T14:02:44.867Z,1.80
2022-09-12T14:05:20.074Z,1.92
2022-09-12T14:07:56.636Z,1.80
2022-09-12T14:10:33.009Z,2.05
2022-09-12T14:13:06.049Z,1.90
2022-09-12T14:15:38.166Z,1.88
2022-09-12T14:18:21.472Z,1.90
2022-09-12T14:20:56.925Z,1.80
2022-09-12T14:23:30.467Z,1.70
2022-09-12T14:26:05.059Z,2.25
2022-09-12T14:28:37.574Z,1.50
2022-09-12T14:33:48.659Z,1.98
2022-09-12T14:36:25.721Z,1.80
2022-09-12T14:38:58.867Z,1.73
2022-09-12T14:41:33.163Z,2.00
2022-09-12T14:44:06.054Z,2.10
2022-09-12T14:46:39.138Z,1.95
2022-09-12T14:49:13.702Z,2.00
2022-09-12T14:51:53.598Z,1.60
2022-09-12T14:54:42.839Z,2.00
2022-09-12T14:57:36.736Z,2.42
2022-09-12T15:00:17.833Z,1.85
2022-09-12T15:02:48.163Z,2.00
2022-09-12T15:05:21.902Z,1.98
2022-09-12T15:07:55.435Z,1.80
2022-09-12T15:10:31.008Z,1.85
2022-09-12T15:13:14.178Z,1.88
2022-09-12T15:15:46.841Z,1.90
2022-09-12T15:20:50.660Z,1.70
2022-09-12T15:23:22.485Z,1.73
2022-09-12T15:25:53.371Z,1.75
2022-09-12T15:28:26.847Z,1.60
2022-09-12T15:30:58.166Z,1.75
2022-09-12T15:33:29.130Z,1.50
2022-09-12T15:36:00.051Z,1.40
2022-09-12T15:38:30.926Z,1.63
2022-09-12T15:41:01.877Z,1.70
2022-09-12T15:43:34.181Z,1.05
2022-09-12T15:46:06.772Z,1.50
2022-09-12T15:48:37.789Z,1.40
2022-09-12T15:51:15.438Z,1.40
2022-09-12T15:53:47.939Z,1.60
2022-09-12T15:56:20.986Z,1.60
2022-09-12T15:59:00.515Z,1.50
2022-09-12T16:01:31.013Z,1.48
2022-09-12T16:04:00.188Z,1.30
2022-09-12T16:06:36.294Z,1.45
2022-09-12T16:09:07.972Z,1.30
2022-09-12T16:11:39.492Z,1.40
2022-09-12T16:14:14.875Z,1.80
2022-09-12T16:16:43.895Z,1.65
2022-09-12T16:19:15.461Z,1.95
2022-09-12T16:21:46.688Z,1.70
2022-09-12T16:24:17.793Z,1.63
2022-09-12T16:26:49.024Z,1.50
2022-09-12T16:29:21.317Z,1.60
2022-09-12T16:31:52.221Z,1.90
2022-09-12T16:34:23.234Z,1.55
2022-09-12T16:36:54.225Z,1.75
2022-09-12T16:39:23.041Z,1.70
2022-09-12T16:41:54.002Z,1.80
2022-09-12T16:44:26.302Z,1.80
2022-09-12T16:46:57.211Z,1.98
2022-09-12T16:49:28.108Z,1.70
2022-09-12T16:51:57.771Z,2.10
2022-09-12T16:54:27.786Z,1.83
2022-09-12T16:56:57.515Z,1.90
2022-09-12T16:59:28.612Z,1.90
2022-09-12T17:01:57.225Z,2.05
2022-09-12T17:04:27.146Z,1.80
2022-09-12T17:06:59.396Z,2.05
2022-09-12T17:09:30.336Z,2.10
2022-09-12T17:12:00.732Z,2.05
2022-09-12T17:14:31.492Z,1.80
2022-09-12T17:17:00.097Z,1.88
2022-09-12T17:19:29.949Z,2.10
2022-09-12T17:21:59.778Z,1.80
2022-09-12T17:24:29.602Z,1.80
2022-09-12T17:26:59.355Z,1.83
2022-09-12T17:29:31.601Z,2.22
2022-09-12T17:31:59.866Z,2.25
2022-09-12T17:34:30.200Z,1.83
2022-09-12T17:37:00.273Z,1.90
2022-09-12T17:39:29.986Z,2.00
2022-09-12T17:42:00.098Z,1.80
2022-09-12T17:44:31.159Z,2.25
2022-09-12T17:47:02.986Z,1.90
2022-09-12T17:49:34.278Z,2.45
2022-09-12T17:52:04.165Z,2.42
2022-09-12T17:54:33.658Z,1.95
2022-09-12T17:57:04.982Z,1.90
2022-09-12T17:59:35.099Z,2.10
2022-09-12T18:02:14.425Z,2.28
2022-09-12T18:04:45.826Z,2.03
2022-09-12T18:07:14.210Z,1.83
2022-09-12T18:09:43.738Z,1.98
2022-09-12T18:12:14.181Z,1.95
2022-09-12T18:14:45.613Z,2.03
2022-09-12T18:17:13.654Z,2.10
2022-09-12T18:19:44.597Z,1.90
2022-09-12T18:22:13.800Z,2.10
2022-09-12T18:24:44.529Z,1.88
2022-09-12T18:27:14.255Z,2.03
2022-09-12T18:29:55.139Z,2.30
2022-09-12T18:32:35.402Z,2.10
2022-09-12T18:35:07.420Z,2.03
2022-09-12T18:37:38.519Z,2.10
2022-09-12T18:40:09.529Z,2.10
2022-09-12T18:42:39.158Z,1.95
2022-09-12T18:45:11.148Z,2.03
2022-09-12T18:47:42.285Z,2.33
2022-09-12T18:50:11.695Z,2.20
2022-09-12T18:52:41.885Z,1.98
2022-09-12T18:55:11.932Z,2.20
2022-09-12T18:57:42.101Z,1.83
2022-09-12T19:00:14.602Z,2.15
2022-09-12T19:02:44.593Z,2.33
2022-09-12T19:05:14.382Z,2.15
2022-09-12T19:07:43.514Z,2.17
2022-09-12T19:10:13.104Z,2.00
2022-09-12T19:12:43.010Z,1.95
2022-09-12T19:15:14.226Z,2.00
2022-09-12T19:17:44.979Z,2.22
2022-09-12T19:20:14.873Z,2.20
2022-09-12T19:22:44.648Z,1.98
2022-09-12T19:25:14.599Z,2.20
2022-09-12T19:27:44.342Z,2.17
2022-09-12T19:30:15.448Z,2.17
2022-09-12T19:32:45.601Z,2.15
2022-09-12T19:35:14.799Z,1.90
2022-09-12T19:37:43.804Z,2.30
2022-09-12T19:40:13.612Z,1.83
2022-09-12T19:42:43.495Z,2.20
2022-09-12T19:45:13.210Z,2.38
2022-09-12T19:47:43.344Z,2.15
2022-09-12T19:50:11.769Z,2.40
2022-09-12T19:52:42.135Z,2.40
2022-09-12T19:55:11.185Z,2.28
2022-09-12T19:57:40.984Z,2.60
2022-09-12T20:00:12.226Z,2.67
2022-09-12T20:02:41.468Z,2.20
2022-09-12T20:05:11.776Z,2.42
2022-09-12T20:07:40.130Z,2.30
2022-09-12T20:10:10.225Z,2.33
2022-09-12T20:12:39.746Z,2.25
2022-09-12T20:15:11.046Z,2.50
2022-09-12T20:17:42.383Z,2.60
2022-09-12T20:20:14.217Z,2.58
2022-09-12T20:22:44.272Z,2.40
2022-09-12T20:25:14.379Z,2.35
2022-09-12T20:27:44.355Z,2.35
2022-09-12T20:30:14.510Z,2.50
2022-09-12T20:32:44.799Z,2.33
2022-09-12T20:35:17.420Z,2.20
2022-09-12T20:37:48.348Z,2.20
2022-09-12T20:40:19.505Z,2.10
2022-09-12T20:42:50.445Z,2.03
2022-09-12T20:45:21.424Z,1.90
2022-09-12T20:47:52.287Z,1.95
2022-09-12T20:50:24.558Z,1.80
2022-09-12T20:52:55.018Z,2.33
2022-09-12T20:55:23.666Z,1.70
2022-09-12T20:57:54.498Z,2.10
2022-09-12T21:00:25.339Z,2.17
2022-09-12T21:02:56.648Z,1.70
2022-09-12T21:05:28.919Z,2.20
2022-09-12T21:07:58.387Z,2.15
2022-09-12T21:10:29.261Z,1.90
2022-09-12T21:13:00.152Z,1.95
2022-09-12T21:15:31.009Z,2.00
2022-09-12T21:18:01.893Z,1.85
2022-09-12T21:20:34.402Z,2.03
2022-09-12T21:23:04.693Z,2.13
2022-09-12T21:25:35.550Z,2.00
2022-09-12T21:28:06.471Z,2.10
2022-09-12T21:30:37.362Z,1.92
2022-09-12T21:33:08.284Z,1.77
2022-09-12T21:35:40.539Z,2.35
2022-09-12T21:38:10.021Z,2.10
2022-09-12T21:40:40.899Z,2.10
2022-09-12T21:43:13.176Z,2.33
2022-09-12T21:45:44.164Z,2.15
2022-09-12T21:48:15.182Z,2.15
2022-09-12T21:50:52.025Z,2.20
2022-09-12T21:53:22.997Z,2.20
2022-09-12T21:55:54.359Z,2.33
2022-09-12T21:58:25.230Z,2.22
2022-09-12T22:00:56.399Z,2.28
2022-09-12T22:03:27.602Z,2.30
2022-09-12T22:06:01.517Z,2.50
2022-09-12T22:08:33.803Z,2.17
2022-09-12T22:11:09.379Z,2.30
2022-09-12T22:13:42.710Z,2.28
2022-09-12T22:16:13.754Z,2.70
2022-09-12T22:18:47.038Z,2.92
2022-09-12T22:21:20.934Z,2.35
2022-09-12T22:24:09.664Z,2.40
2022-09-12T22:26:42.461Z,2.38
2022-09-12T22:31:44.701Z,2.60
2022-09-12T22:34:14.843Z,2.60
2022-09-12T22:36:45.591Z,2.70
2022-09-12T22:39:14.153Z,1.90
2022-09-12T22:41:43.482Z,2.20
2022-09-12T22:44:13.226Z,2.28
2022-09-12T22:46:42.607Z,2.40
2022-09-12T22:49:12.759Z,2.47
2022-09-12T22:51:41.389Z,2.47
2022-09-12T22:54:12.117Z,2.20
2022-09-12T22:56:40.857Z,2.30
2022-09-12T22:59:10.158Z,2.10
2022-09-12T23:01:39.361Z,2.28
2022-09-12T23:04:08.660Z,2.35
2022-09-12T23:06:38.059Z,1.88
2022-09-12T23:09:07.254Z,2.10
2022-09-12T23:11:38.232Z,2.20
2022-09-12T23:14:06.794Z,2.35
2022-09-12T23:16:36.248Z,2.28
2022-09-12T23:19:05.624Z,2.22
2022-09-12T23:21:34.851Z,2.20
2022-09-12T23:24:05.483Z,2.10
2022-09-12T23:26:34.348Z,2.30
2022-09-12T23:29:05.611Z,2.22
2022-09-12T23:31:35.710Z,2.35
2022-09-12T23:34:06.847Z,2.20
2022-09-12T23:36:37.315Z,2.15
2022-09-12T23:39:06.748Z,2.30
2022-09-12T23:41:35.944Z,2.20
2022-09-12T23:44:06.518Z,1.95
2022-09-12T23:46:35.251Z,2.10
2022-09-12T23:49:04.269Z,2.13
2022-09-12T23:51:33.556Z,2.17
2022-09-12T23:54:03.342Z,2.10
2022-09-12T23:56:32.652Z,2.20
2022-09-12T23:59:01.896Z,2.08
